Time,TemperatureF,DewpointF,PressureIn,WindDirection,WindDirectionDegrees,WindSpeedMPH,WindSpeedGustMPH,Humidity,HourlyPrecipIn,Conditions,Clouds,dailyrainin,SoftwareType,DateUTC
2013-03-01 00:00:00,35.1,6.8,29.09,West,259,2.7,3.6,30,-99.99,,---,-99.99,VWS V14.01,2013-03-01 05:00:00,
2013-03-01 00:01:00,35.1,6.8,29.09,WNW,293,0.0,3.6,30,-99.99,,---,-99.99,VWS V14.01,2013-03-01 05:01:00,
2013-03-01 00:07:00,35.1,6.8,29.09,West,280,0.0,0.0,30,-99.99,,---,-99.99,VWS V14.01,2013-03-01 05:07:00,
2013-03-01 00:08:00,35.2,6.9,29.09,WNW,286,0.0,0.0,30,-99.99,,---,-99.99,VWS V14.01,2013-03-01 05:08:00,
2013-03-01 00:13:00,35.4,7.1,29.12,NW,316,3.1,3.1,30,-99.99,,---,-99.99,VWS V14.01,2013-03-01 05:13:00,
2013-03-01 00:18:00,35.6,6.5,29.12,WNW,302,5.4,5.4,29,-99.99,,---,-99.99,VWS V14.01,2013-03-01 05:18:00,
2013-03-01 00:23:00,35.8,6.7,29.12,WNW,288,2.7,6.3,29,-99.99,,---,-99.99,VWS V14.01,2013-03-01 05:23:00,
2013-03-01 00:28:00,35.8,5.1,29.12,WSW,252,0.0,2.7,27,-99.99,,---,-99.99,VWS V14.01,2013-03-01 05:28:00,
2013-03-01 00:33:00,35.8,5.1,29.12,WNW,295,4.0,4.0,27,-99.99,,---,-99.99,VWS V14.01,2013-03-01 05:33:00,
2013-03-01 00:39:00,35.8,5.1,29.12,NW,305,0.0,0.0,27,-99.99,,---,-99.99,VWS V14.01,2013-03-01 05:39:00,
2013-03-01 00:44:00,35.8,5.1,29.12,West,279,0.0,0.0,27,-99.99,,---,-99.99,VWS V14.01,2013-03-01 05:44:00,
2013-03-01 00:49:00,35.8,5.1,29.12,WNW,296,3.6,3.6,27,-99.99,,---,-99.99,VWS V14.01,2013-03-01 05:49:00,
2013-03-01 00:54:00,35.8,5.1,29.12,WNW,287,4.0,4.0,27,-99.99,,---,-99.99,VWS V14.01,2013-03-01 05:54:00,
2013-03-01 00:59:00,35.6,6.5,29.12,West,271,0.0,0.0,29,-99.99,,---,-99.99,VWS V14.01,2013-03-01 05:59:00,
2013-03-01 01:04:00,35.8,6.7,29.12,WNW,300,0.0,0.0,29,-99.99,,---,-99.99,VWS V14.01,2013-03-01 06:04:00,
2013-03-01 01:09:00,35.8,6.7,29.12,WNW,299,3.6,4.0,29,-99.99,,---,-99.99,VWS V14.01,2013-03-01 06:09:00,
2013-03-01 01:14:00,35.8,6.7,29.12,West,265,2.7,4.9,29,-99.99,,---,-99.99,VWS V14.01,2013-03-01 06:14:00,
2013-03-01 01:19:00,35.8,6.7,29.12,NNW,327,4.0,5.4,29,-99.99,,---,-99.99,VWS V14.01,2013-03-01 06:19:00,
2013-03-01 01:24:00,36.0,6.8,29.12,NW,320,0.0,0.0,29,-99.99,,---,-99.99,VWS V14.01,2013-03-01 06:24:00,
2013-03-01 01:30:00,36.0,7.6,29.12,WNW,295,3.6,4.0,30,-99.99,,---,-99.99,VWS V14.01,2013-03-01 06:30:00,
2013-03-01 01:35:00,36.1,7.7,29.12,NW,321,5.8,5.8,30,-99.99,,---,-99.99,VWS V14.01,2013-03-01 06:35:00,
2013-03-01 01:40:00,36.1,7.7,29.12,NNW,334,4.0,4.9,30,-99.99,,---,-99.99,VWS V14.01,2013-03-01 06:40:00,
2013-03-01 01:45:00,36.1,7.7,29.12,NW,304,5.4,5.4,30,-99.99,,---,-99.99,VWS V14.01,2013-03-01 06:45:00,
2013-03-01 01:50:00,36.1,7.7,29.12,WNW,295,3.1,4.9,30,-99.99,,---,-99.99,VWS V14.01,2013-03-01 06:50:00,
2013-03-01 01:55:00,36.1,7.7,29.12,WNW,298,3.1,3.6,30,-99.99,,---,-99.99,VWS V14.01,2013-03-01 06:55:00,
2013-03-01 02:00:00,36.1,7.7,29.12,NW,312,4.0,5.4,30,-99.99,,---,-99.99,VWS V14.01,2013-03-01 07:00:00,
2013-03-01 02:05:00,36.3,7.9,29.12,NW,309,4.5,5.8,30,-99.99,,---,-99.99,VWS V14.01,2013-03-01 07:05:00,
2013-03-01 02:10:00,36.3,7.9,29.12,NW,313,4.0,4.0,30,-99.99,,---,-99.99,VWS V14.01,2013-03-01 07:10:00,
2013-03-01 02:15:00,36.3,7.9,29.12,NW,315,4.9,7.6,30,-99.99,,---,-99.99,VWS V14.01,2013-03-01 07:15:00,
2013-03-01 02:20:00,36.3,7.9,29.12,NW,311,0.0,0.0,30,-99.99,,---,-99.99,VWS V14.01,2013-03-01 07:20:00,
2013-03-01 02:26:00,36.3,7.9,29.12,NW,319,6.3,6.3,30,-99.99,,---,-99.99,VWS V14.01,2013-03-01 07:26:00,
2013-03-01 02:31:00,36.3,7.9,29.12,WNW,295,4.0,4.0,30,-99.99,,---,-99.99,VWS V14.01,2013-03-01 07:31:00,
2013-03-01 02:36:00,36.3,7.1,29.12,WNW,293,6.3,6.3,29,-99.99,,---,-99.99,VWS V14.01,2013-03-01 07:36:00,
2013-03-01 02:41:00,36.3,7.1,29.12,West,268,6.3,6.7,29,-99.99,,---,-99.99,VWS V14.01,2013-03-01 07:41:00,
2013-03-01 02:46:00,36.3,7.1,29.12,WNW,288,0.0,0.0,29,-99.99,,---,-99.99,VWS V14.01,2013-03-01 07:46:00,
2013-03-01 02:51:00,36.3,7.1,29.12,NW,305,0.0,2.7,29,-99.99,,---,-99.99,VWS V14.01,2013-03-01 07:51:00,
2013-03-01 02:56:00,36.3,7.1,29.12,NW,305,0.0,0.0,29,-99.99,,---,-99.99,VWS V14.01,2013-03-01 07:56:00,
2013-03-01 03:01:00,36.3,7.1,29.12,NW,318,0.0,0.0,29,-99.99,,---,-99.99,VWS V14.01,2013-03-01 08:01:00,
2013-03-01 03:06:00,36.3,7.9,29.12,NW,321,0.0,0.0,30,-99.99,,---,-99.99,VWS V14.01,2013-03-01 08:06:00,
2013-03-01 03:12:00,36.3,7.9,29.12,NNW,338,4.9,5.4,30,-99.99,,---,-99.99,VWS V14.01,2013-03-01 08:12:00,
2013-03-01 03:17:00,36.3,7.9,29.15,NW,313,2.7,3.6,30,-99.99,,---,-99.99,VWS V14.01,2013-03-01 08:17:00,
2013-03-01 03:22:00,36.3,7.9,29.15,WNW,291,0.0,0.0,30,-99.99,,---,-99.99,VWS V14.01,2013-03-01 08:22:00,
2013-03-01 03:27:00,36.3,7.9,29.15,NW,317,0.0,0.0,30,-99.99,,---,-99.99,VWS V14.01,2013-03-01 08:27:00,
2013-03-01 03:32:00,36.3,7.9,29.15,NNW,328,3.1,3.1,30,-99.99,,---,-99.99,VWS V14.01,2013-03-01 08:32:00,
2013-03-01 03:37:00,36.3,7.9,29.15,NW,320,4.9,8.1,30,-99.99,,---,-99.99,VWS V14.01,2013-03-01 08:37:00,
2013-03-01 03:42:00,36.5,8.0,29.15,NNW,327,5.8,5.8,30,-99.99,,---,-99.99,VWS V14.01,2013-03-01 08:42:00,
2013-03-01 03:47:00,36.7,8.2,29.15,NW,315,6.3,6.3,30,-99.99,,---,-99.99,VWS V14.01,2013-03-01 08:47:00,
2013-03-01 03:52:00,36.7,7.4,29.15,NW,321,2.7,5.4,29,-99.99,,---,-99.99,VWS V14.01,2013-03-01 08:52:00,
2013-03-01 03:58:00,36.7,7.4,29.15,NNW,327,3.1,4.9,29,-99.99,,---,-99.99,VWS V14.01,2013-03-01 08:58:00,
2013-03-01 04:03:00,36.7,7.4,29.15,NNW,328,3.1,6.3,29,-99.99,,---,-99.99,VWS V14.01,2013-03-01 09:03:00,
2013-03-01 04:08:00,36.7,7.4,29.15,NW,320,4.0,5.4,29,-99.99,,---,-99.99,VWS V14.01,2013-03-01 09:08:00,
2013-03-01 04:13:00,36.7,7.4,29.15,West,268,4.0,4.0,29,-99.99,,---,-99.99,VWS V14.01,2013-03-01 09:13:00,
2013-03-01 04:18:00,36.7,7.4,29.15,WNW,301,4.0,4.0,29,-99.99,,---,-99.99,VWS V14.01,2013-03-01 09:18:00,
2013-03-01 04:23:00,36.7,7.4,29.15,NW,316,0.0,0.0,29,-99.99,,---,-99.99,VWS V14.01,2013-03-01 09:23:00,
2013-03-01 04:28:00,36.7,7.4,29.15,NW,321,0.0,0.0,29,-99.99,,---,-99.99,VWS V14.01,2013-03-01 09:28:00,
2013-03-01 04:33:00,36.7,7.4,29.15,NNW,331,3.6,5.4,29,-99.99,,---,-99.99,VWS V14.01,2013-03-01 09:33:00,
2013-03-01 04:38:00,36.7,7.4,29.15,NW,309,0.0,0.0,29,-99.99,,---,-99.99,VWS V14.01,2013-03-01 09:38:00,
2013-03-01 04:43:00,36.7,5.9,29.15,NW,324,4.0,4.0,27,-99.99,,---,-99.99,VWS V14.01,2013-03-01 09:43:00,
2013-03-01 04:48:00,36.7,5.9,29.15,NW,313,3.1,4.0,27,-99.99,,---,-99.99,VWS V14.01,2013-03-01 09:48:00,
2013-03-01 04:54:00,36.7,5.9,29.15,NW,305,0.0,0.0,27,-99.99,,---,-99.99,VWS V14.01,2013-03-01 09:54:00,
2013-03-01 04:59:00,36.9,3.5,29.15,NNW,330,0.0,0.0,24,-99.99,,---,-99.99,VWS V14.01,2013-03-01 09:59:00,
2013-03-01 05:04:00,36.9,3.5,29.15,NNW,329,2.7,2.7,24,-99.99,,---,-99.99,VWS V14.01,2013-03-01 10:04:00,
2013-03-01 05:09:00,36.9,3.5,29.15,NNW,338,4.0,4.0,24,-99.99,,---,-99.99,VWS V14.01,2013-03-01 10:09:00,
2013-03-01 05:14:00,36.9,3.5,29.15,NW,314,0.0,0.0,24,-99.99,,---,-99.99,VWS V14.01,2013-03-01 10:14:00,
2013-03-01 05:19:00,36.7,3.3,29.15,NW,318,0.0,0.0,24,-99.99,,---,-99.99,VWS V14.01,2013-03-01 10:19:00,
2013-03-01 05:24:00,36.7,3.3,29.15,NW,323,0.0,0.0,24,-99.99,,---,-99.99,VWS V14.01,2013-03-01 10:24:00,
2013-03-01 05:29:00,36.7,3.3,29.15,NW,306,0.0,0.0,24,-99.99,,---,-99.99,VWS V14.01,2013-03-01 10:29:00,
2013-03-01 05:34:00,36.5,3.2,29.15,NW,306,0.0,0.0,24,-99.99,,---,-99.99,VWS V14.01,2013-03-01 10:34:00,
2013-03-01 05:39:00,36.3,3.0,29.15,NW,320,0.0,0.0,24,-99.99,,---,-99.99,VWS V14.01,2013-03-01 10:39:00,
2013-03-01 05:45:00,36.3,3.0,29.15,NW,315,4.0,4.0,24,-99.99,,---,-99.99,VWS V14.01,2013-03-01 10:45:00,
2013-03-01 05:50:00,36.3,3.0,29.15,NW,312,0.0,0.0,24,-99.99,,---,-99.99,VWS V14.01,2013-03-01 10:50:00,
2013-03-01 05:55:00,36.3,3.0,29.15,NNW,328,0.0,0.0,24,-99.99,,---,-99.99,VWS V14.01,2013-03-01 10:55:00,
2013-03-01 06:00:00,36.3,3.0,29.15,NNW,328,0.0,0.0,24,-99.99,,---,-99.99,VWS V14.01,2013-03-01 11:00:00,
2013-03-01 06:05:00,36.5,3.2,29.15,NW,325,0.0,0.0,24,-99.99,,---,-99.99,VWS V14.01,2013-03-01 11:05:00,
2013-03-01 06:10:00,36.5,3.2,29.15,NW,324,0.0,0.0,24,-99.99,,---,-99.99,VWS V14.01,2013-03-01 11:10:00,
2013-03-01 06:15:00,36.5,3.2,29.15,NW,324,0.0,0.0,24,-99.99,,---,-99.99,VWS V14.01,2013-03-01 11:15:00,
2013-03-01 06:20:00,36.7,3.3,29.15,NW,324,0.0,0.0,24,-99.99,,---,-99.99,VWS V14.01,2013-03-01 11:20:00,
2013-03-01 06:25:00,36.7,1.4,29.15,NW,324,0.0,0.0,22,-99.99,,---,-99.99,VWS V14.01,2013-03-01 11:25:00,
2013-03-01 06:30:00,36.9,1.6,29.15,West,273,0.0,0.0,22,-99.99,,---,-99.99,VWS V14.01,2013-03-01 11:30:00,
2013-03-01 06:35:00,36.9,1.6,29.15,WNW,296,0.0,0.0,22,-99.99,,---,-99.99,VWS V14.01,2013-03-01 11:35:00,
2013-03-01 06:41:00,36.9,1.6,29.15,WNW,296,0.0,0.0,22,-99.99,,---,-99.99,VWS V14.01,2013-03-01 11:41:00,
2013-03-01 06:46:00,37.0,1.7,29.15,NW,306,0.0,0.0,22,-99.99,,---,-99.99,VWS V14.01,2013-03-01 11:46:00,
2013-03-01 06:51:00,37.0,1.7,29.15,NW,306,0.0,0.0,22,-99.99,,---,-99.99,VWS V14.01,2013-03-01 11:51:00,
2013-03-01 06:56:00,37.0,1.7,29.15,NW,306,0.0,0.0,22,-99.99,,---,-99.99,VWS V14.01,2013-03-01 11:56:00,
2013-03-01 07:01:00,36.9,1.6,29.15,NW,306,0.0,0.0,22,-99.99,,---,-99.99,VWS V14.01,2013-03-01 12:01:00,
2013-03-01 07:06:00,36.9,1.6,29.15,NW,306,0.0,0.0,22,-99.99,,---,-99.99,VWS V14.01,2013-03-01 12:06:00,
2013-03-01 07:11:00,36.9,1.6,29.15,NW,306,0.0,0.0,22,-99.99,,---,-99.99,VWS V14.01,2013-03-01 12:11:00,
2013-03-01 07:16:00,36.9,1.6,29.15,NW,306,0.0,0.0,22,-99.99,,---,-99.99,VWS V14.01,2013-03-01 12:16:00,
2013-03-01 07:27:00,37.0,1.7,29.15,WNW,300,4.0,4.0,22,-99.99,,---,-99.99,VWS V14.01,2013-03-01 12:27:00,
2013-03-01 07:32:00,36.9,1.6,29.18,WNW,303,6.7,6.7,22,-99.99,,---,-99.99,VWS V14.01,2013-03-01 12:32:00,
2013-03-01 07:37:00,36.9,1.6,29.18,WNW,303,6.7,6.7,22,-99.99,,---,-99.99,VWS V14.01,2013-03-01 12:37:00,
2013-03-01 07:42:00,36.9,1.6,29.18,NW,313,4.0,4.0,22,-99.99,,---,-99.99,VWS V14.01,2013-03-01 12:42:00,
2013-03-01 07:47:00,37.0,1.7,29.18,WNW,292,4.0,5.4,22,-99.99,,---,-99.99,VWS V14.01,2013-03-01 12:47:00,
2013-03-01 07:52:00,37.4,-1.1,29.18,NW,309,3.6,3.6,19,-99.99,,---,-99.99,VWS V14.01,2013-03-01 12:52:00,
2013-03-01 07:58:00,37.9,-0.6,29.18,NW,319,2.7,8.1,19,-99.99,,---,-99.99,VWS V14.01,2013-03-01 12:58:00,
2013-03-01 08:03:00,38.5,-0.2,29.18,North,3,3.6,3.6,19,-99.99,,---,-99.99,VWS V14.01,2013-03-01 13:03:00,
2013-03-01 08:08:00,38.7,0.0,29.18,North,3,3.6,3.6,19,-99.99,,---,-99.99,VWS V14.01,2013-03-01 13:08:00,
2013-03-01 08:13:00,38.8,0.1,29.18,NNW,327,5.8,5.8,19,-99.99,,---,-99.99,VWS V14.01,2013-03-01 13:13:00,
2013-03-01 08:18:00,39.2,-0.7,29.18,NNW,335,10.1,10.1,18,-99.99,,---,-99.99,VWS V14.01,2013-03-01 13:18:00,
2013-03-01 08:23:00,39.2,-0.7,29.18,North,353,6.3,10.5,18,-99.99,,---,-99.99,VWS V14.01,2013-03-01 13:23:00,
2013-03-01 08:28:00,39.2,-0.7,29.18,WNW,300,7.6,7.6,18,-99.99,,---,-99.99,VWS V14.01,2013-03-01 13:28:00,
2013-03-01 08:33:00,39.2,-3.2,29.18,WNW,300,7.6,7.6,16,-99.99,,---,-99.99,VWS V14.01,2013-03-01 13:33:00,
2013-03-01 08:39:00,39.2,-3.2,29.18,NW,305,8.3,8.3,16,-99.99,,---,-99.99,VWS V14.01,2013-03-01 13:39:00,
2013-03-01 08:44:00,39.2,-3.2,29.21,NW,320,6.3,10.5,16,-99.99,,---,-99.99,VWS V14.01,2013-03-01 13:44:00,
2013-03-01 08:49:00,39.4,-3.1,29.21,NNW,348,4.0,8.7,16,-99.99,,---,-99.99,VWS V14.01,2013-03-01 13:49:00,
2013-03-01 08:54:00,39.6,-2.9,29.21,NW,324,8.3,8.3,16,-99.99,,---,-99.99,VWS V14.01,2013-03-01 13:54:00,
2013-03-01 08:59:00,39.6,-2.9,29.21,NNW,330,12.3,13.2,16,-99.99,,---,-99.99,VWS V14.01,2013-03-01 13:59:00,
2013-03-01 09:04:00,39.6,-2.9,29.21,North,353,10.1,10.1,16,-99.99,,---,-99.99,VWS V14.01,2013-03-01 14:04:00,
2013-03-01 09:09:00,39.6,-2.9,29.21,NW,309,5.8,5.8,16,-99.99,,---,-99.99,VWS V14.01,2013-03-01 14:09:00,
2013-03-01 09:14:00,39.6,-2.9,29.18,NW,309,5.8,5.8,16,-99.99,,---,-99.99,VWS V14.01,2013-03-01 14:14:00,
2013-03-01 09:19:00,39.7,-2.8,29.18,NW,309,5.8,5.8,16,-99.99,,---,-99.99,VWS V14.01,2013-03-01 14:19:00,
2013-03-01 09:24:00,39.9,-2.6,29.18,NW,309,5.8,5.8,16,-99.99,,---,-99.99,VWS V14.01,2013-03-01 14:24:00,
2013-03-01 09:29:00,39.9,-2.6,29.21,WNW,291,6.3,6.3,16,-99.99,,---,-99.99,VWS V14.01,2013-03-01 14:29:00,
2013-03-01 09:34:00,40.3,-2.3,29.21,North,4,8.1,8.1,16,-99.99,,---,-99.99,VWS V14.01,2013-03-01 14:34:00,
2013-03-01 09:39:00,40.3,-2.3,29.21,North,4,8.1,8.1,16,-99.99,,---,-99.99,VWS V14.01,2013-03-01 14:39:00,
2013-03-01 09:45:00,40.3,-2.3,29.21,North,4,8.1,8.1,16,-99.99,,---,-99.99,VWS V14.01,2013-03-01 14:45:00,
2013-03-01 09:50:00,40.1,-2.5,29.21,West,281,10.1,10.5,16,-99.99,,---,-99.99,VWS V14.01,2013-03-01 14:50:00,
2013-03-01 09:55:00,40.3,-2.3,29.21,NW,323,8.7,10.1,16,-99.99,,---,-99.99,VWS V14.01,2013-03-01 14:55:00,
2013-03-01 10:00:00,40.3,-2.3,29.21,NNW,329,5.8,8.1,16,-99.99,,---,-99.99,VWS V14.01,2013-03-01 15:00:00,
2013-03-01 10:05:00,40.8,-1.9,29.21,NW,317,6.3,6.3,16,-99.99,,---,-99.99,VWS V14.01,2013-03-01 15:05:00,
2013-03-01 10:10:00,41.5,-1.3,29.21,NNW,330,11.0,11.0,16,-99.99,,---,-99.99,VWS V14.01,2013-03-01 15:10:00,
2013-03-01 10:15:00,41.2,-1.6,29.21,NW,326,8.3,8.3,16,-99.99,,---,-99.99,VWS V14.01,2013-03-01 15:15:00,
2013-03-01 10:20:00,41.2,-1.6,29.21,North,4,5.8,8.7,16,-99.99,,---,-99.99,VWS V14.01,2013-03-01 15:20:00,
2013-03-01 10:25:00,41.5,-1.3,29.21,NNW,329,8.1,15.0,16,-99.99,,---,-99.99,VWS V14.01,2013-03-01 15:25:00,
2013-03-01 10:30:00,41.4,-1.5,29.21,NW,325,7.6,10.5,16,-99.99,,---,-99.99,VWS V14.01,2013-03-01 15:30:00,
2013-03-01 10:35:00,41.0,-1.7,29.21,NNW,332,8.1,8.1,16,-99.99,,---,-99.99,VWS V14.01,2013-03-01 15:35:00,
2013-03-01 10:40:00,40.5,-2.2,29.21,NW,321,13.6,13.6,16,-99.99,,---,-99.99,VWS V14.01,2013-03-01 15:40:00,
2013-03-01 10:46:00,40.5,-2.2,29.21,NW,324,8.7,11.0,16,-99.99,,---,-99.99,VWS V14.01,2013-03-01 15:46:00,
2013-03-01 10:51:00,40.5,-2.2,29.21,NNW,327,9.2,9.2,16,-99.99,,---,-99.99,VWS V14.01,2013-03-01 15:51:00,
2013-03-01 10:56:00,40.5,-2.2,29.21,NNW,336,8.3,11.0,16,-99.99,,---,-99.99,VWS V14.01,2013-03-01 15:56:00,
2013-03-01 11:01:00,40.6,-2.0,29.21,NNW,333,8.3,10.1,16,-99.99,,---,-99.99,VWS V14.01,2013-03-01 16:01:00,
2013-03-01 11:06:00,40.6,-2.0,29.21,NNW,334,11.4,11.4,16,-99.99,,---,-99.99,VWS V14.01,2013-03-01 16:06:00,
2013-03-01 11:11:00,40.6,-2.0,29.21,North,0,5.8,8.7,16,-99.99,,---,-99.99,VWS V14.01,2013-03-01 16:11:00,
2013-03-01 11:16:00,40.8,-1.9,29.18,NW,326,10.1,10.1,16,-99.99,,---,-99.99,VWS V14.01,2013-03-01 16:16:00,
2013-03-01 11:21:00,41.0,-1.7,29.18,NNW,333,8.3,8.3,16,-99.99,,---,-99.99,VWS V14.01,2013-03-01 16:21:00,
2013-03-01 11:26:00,40.8,-1.9,29.18,NNW,333,8.3,8.3,16,-99.99,,---,-99.99,VWS V14.01,2013-03-01 16:26:00,
2013-03-01 11:31:00,41.0,-1.7,29.21,NNW,335,4.0,4.0,16,-99.99,,---,-99.99,VWS V14.01,2013-03-01 16:31:00,
2013-03-01 11:36:00,40.8,-1.9,29.21,NW,313,8.1,8.1,16,-99.99,,---,-99.99,VWS V14.01,2013-03-01 16:36:00,
2013-03-01 11:42:00,40.6,-2.0,29.21,North,5,10.5,10.5,16,-99.99,,---,-99.99,VWS V14.01,2013-03-01 16:42:00,
2013-03-01 11:47:00,40.5,-2.2,29.21,NW,325,10.1,13.2,16,-99.99,,---,-99.99,VWS V14.01,2013-03-01 16:47:00,
2013-03-01 11:52:00,40.3,-2.3,29.21,WNW,290,8.3,12.3,16,-99.99,,---,-99.99,VWS V14.01,2013-03-01 16:52:00,
2013-03-01 11:57:00,40.1,-2.5,29.21,NNW,328,8.7,10.5,16,-99.99,,---,-99.99,VWS V14.01,2013-03-01 16:57:00,
2013-03-01 12:02:00,39.9,-2.6,29.21,NNW,338,3.6,3.6,16,-99.99,,---,-99.99,VWS V14.01,2013-03-01 17:02:00,
2013-03-01 12:07:00,39.9,-2.6,29.21,NW,308,5.8,5.8,16,-99.99,,---,-99.99,VWS V14.01,2013-03-01 17:07:00,
2013-03-01 12:12:00,39.9,-2.6,29.21,NW,307,6.3,6.3,16,-99.99,,---,-99.99,VWS V14.01,2013-03-01 17:12:00,
2013-03-01 12:17:00,40.1,-2.5,29.21,NNW,331,8.3,8.3,16,-99.99,,---,-99.99,VWS V14.01,2013-03-01 17:17:00,
2013-03-01 12:22:00,40.1,-2.5,29.21,NW,324,10.1,10.1,16,-99.99,,---,-99.99,VWS V14.01,2013-03-01 17:22:00,
2013-03-01 12:28:00,40.3,-2.3,29.21,NNW,344,4.0,4.0,16,-99.99,,---,-99.99,VWS V14.01,2013-03-01 17:28:00,
2013-03-01 12:33:00,40.5,-2.2,29.21,NNW,346,5.8,10.1,16,-99.99,,---,-99.99,VWS V14.01,2013-03-01 17:33:00,
2013-03-01 12:38:00,40.6,-2.0,29.21,NNW,335,5.8,5.8,16,-99.99,,---,-99.99,VWS V14.01,2013-03-01 17:38:00,
2013-03-01 12:43:00,40.5,-2.2,29.21,NW,326,7.6,8.3,16,-99.99,,---,-99.99,VWS V14.01,2013-03-01 17:43:00,
2013-03-01 12:48:00,40.5,-2.2,29.21,North,357,6.3,10.1,16,-99.99,,---,-99.99,VWS V14.01,2013-03-01 17:48:00,
2013-03-01 12:53:00,40.6,-2.0,29.21,NNW,345,5.4,6.3,16,-99.99,,---,-99.99,VWS V14.01,2013-03-01 17:53:00,
2013-03-01 12:59:00,41.0,-1.7,29.21,NNW,346,8.1,8.3,16,-99.99,,---,-99.99,VWS V14.01,2013-03-01 17:59:00,
2013-03-01 13:04:00,40.8,-1.9,29.21,North,349,8.3,8.3,16,-99.99,,---,-99.99,VWS V14.01,2013-03-01 18:04:00,
2013-03-01 13:09:00,40.8,-1.9,29.21,NNW,336,5.4,7.6,16,-99.99,,---,-99.99,VWS V14.01,2013-03-01 18:09:00,
2013-03-01 13:14:00,41.0,-1.7,29.21,NW,308,10.1,14.5,16,-99.99,,---,-99.99,VWS V14.01,2013-03-01 18:14:00,
2013-03-01 13:19:00,41.0,-1.7,29.21,NW,326,6.3,6.3,16,-99.99,,---,-99.99,VWS V14.01,2013-03-01 18:19:00,
2013-03-01 13:24:00,41.2,-1.6,29.21,NW,314,10.5,10.5,16,-99.99,,---,-99.99,VWS V14.01,2013-03-01 18:24:00,
2013-03-01 13:29:00,41.4,-1.5,29.21,NW,319,8.3,8.3,16,-99.99,,---,-99.99,VWS V14.01,2013-03-01 18:29:00,
2013-03-01 13:34:00,41.2,-1.6,29.21,NW,323,7.6,12.8,16,-99.99,,---,-99.99,VWS V14.01,2013-03-01 18:34:00,
2013-03-01 13:39:00,40.6,-2.0,29.21,NNE,20,9.6,13.2,16,-99.99,,---,-99.99,VWS V14.01,2013-03-01 18:39:00,
2013-03-01 13:45:00,40.6,-2.0,29.21,NNW,336,5.8,7.2,16,-99.99,,---,-99.99,VWS V14.01,2013-03-01 18:45:00,
2013-03-01 13:50:00,40.5,-2.2,29.21,NNE,24,6.3,9.2,16,-99.99,,---,-99.99,VWS V14.01,2013-03-01 18:50:00,
2013-03-01 13:55:00,40.5,-2.2,29.21,NNW,343,8.1,8.3,16,-99.99,,---,-99.99,VWS V14.01,2013-03-01 18:55:00,
2013-03-01 14:00:00,40.5,-2.2,29.21,NNW,343,9.2,10.5,16,-99.99,,---,-99.99,VWS V14.01,2013-03-01 19:00:00,
2013-03-01 14:05:00,40.5,-2.2,29.21,NW,312,8.1,12.8,16,-99.99,,---,-99.99,VWS V14.01,2013-03-01 19:05:00,
2013-03-01 14:10:00,40.5,-2.2,29.21,NE,38,3.6,5.8,16,-99.99,,---,-99.99,VWS V14.01,2013-03-01 19:10:00,
2013-03-01 14:15:00,40.5,-2.2,29.21,NNW,329,7.6,7.6,16,-99.99,,---,-99.99,VWS V14.01,2013-03-01 19:15:00,
2013-03-01 14:20:00,40.5,-2.2,29.21,NW,321,6.3,7.6,16,-99.99,,---,-99.99,VWS V14.01,2013-03-01 19:20:00,
2013-03-01 14:25:00,40.3,-2.3,29.21,North,353,8.7,8.7,16,-99.99,,---,-99.99,VWS V14.01,2013-03-01 19:25:00,
2013-03-01 14:30:00,40.3,-2.3,29.21,NW,323,7.6,11.9,16,-99.99,,---,-99.99,VWS V14.01,2013-03-01 19:30:00,
2013-03-01 14:35:00,40.5,-2.2,29.21,NNE,16,6.3,6.3,16,-99.99,,---,-99.99,VWS V14.01,2013-03-01 19:35:00,
2013-03-01 14:40:00,40.8,-1.9,29.21,NNE,16,6.3,6.3,16,-99.99,,---,-99.99,VWS V14.01,2013-03-01 19:40:00,
2013-03-01 14:46:00,41.0,-1.7,29.21,NNW,331,8.3,8.3,16,-99.99,,---,-99.99,VWS V14.01,2013-03-01 19:46:00,
2013-03-01 14:51:00,40.8,-1.9,29.21,NNW,331,10.5,10.5,16,-99.99,,---,-99.99,VWS V14.01,2013-03-01 19:51:00,
2013-03-01 14:56:00,40.8,-1.9,29.21,NW,322,10.5,10.5,16,-99.99,,---,-99.99,VWS V14.01,2013-03-01 19:56:00,
2013-03-01 15:01:00,40.8,-1.9,29.21,North,0,4.0,4.0,16,-99.99,,---,-99.99,VWS V14.01,2013-03-01 20:01:00,
2013-03-01 15:06:00,41.0,-1.7,29.21,NW,319,12.3,12.3,16,-99.99,,---,-99.99,VWS V14.01,2013-03-01 20:06:00,
2013-03-01 15:11:00,40.6,-2.0,29.21,NW,319,12.3,12.3,16,-99.99,,---,-99.99,VWS V14.01,2013-03-01 20:11:00,
2013-03-01 15:16:00,40.6,-2.0,29.21,NNW,337,5.8,5.8,16,-99.99,,---,-99.99,VWS V14.01,2013-03-01 20:16:00,
2013-03-01 15:21:00,40.6,-2.0,29.21,NW,324,6.3,9.6,16,-99.99,,---,-99.99,VWS V14.01,2013-03-01 20:21:00,
2013-03-01 15:26:00,40.5,-2.2,29.21,NNW,330,4.9,7.6,16,-99.99,,---,-99.99,VWS V14.01,2013-03-01 20:26:00,
2013-03-01 15:31:00,40.3,-2.3,29.21,NNW,329,6.3,8.7,16,-99.99,,---,-99.99,VWS V14.01,2013-03-01 20:31:00,
2013-03-01 15:38:00,40.5,-2.2,29.21,NNW,333,7.6,8.1,16,-99.99,,---,-99.99,VWS V14.01,2013-03-01 20:38:00,
2013-03-01 15:43:00,40.5,-2.2,29.21,NW,326,10.5,11.0,16,-99.99,,---,-99.99,VWS V14.01,2013-03-01 20:43:00,
2013-03-01 15:48:00,40.5,-2.2,29.21,NNW,334,8.3,10.5,16,-99.99,,---,-99.99,VWS V14.01,2013-03-01 20:48:00,
2013-03-01 15:53:00,40.5,-2.2,29.21,NNW,328,3.6,8.1,16,-99.99,,---,-99.99,VWS V14.01,2013-03-01 20:53:00,
2013-03-01 15:58:00,40.5,-2.2,29.21,NW,322,0.0,3.1,16,-99.99,,---,-99.99,VWS V14.01,2013-03-01 20:58:00,
2013-03-01 16:03:00,40.3,-2.3,29.21,WNW,300,0.0,0.0,16,-99.99,,---,-99.99,VWS V14.01,2013-03-01 21:03:00,
2013-03-01 16:08:00,40.3,-2.3,29.21,NNW,346,0.0,0.0,16,-99.99,,---,-99.99,VWS V14.01,2013-03-01 21:08:00,
2013-03-01 16:14:00,40.3,-2.3,29.21,NNW,331,0.0,0.0,16,-99.99,,---,-99.99,VWS V14.01,2013-03-01 21:14:00,
2013-03-01 16:19:00,40.3,-2.3,29.21,NW,315,0.0,0.0,16,-99.99,,---,-99.99,VWS V14.01,2013-03-01 21:19:00,
2013-03-01 16:24:00,40.3,-2.3,29.21,NW,317,0.0,0.0,16,-99.99,,---,-99.99,VWS V14.01,2013-03-01 21:24:00,
2013-03-01 16:29:00,40.3,-2.3,29.21,NW,315,0.0,0.0,16,-99.99,,---,-99.99,VWS V14.01,2013-03-01 21:29:00,
2013-03-01 16:34:00,40.3,-2.3,29.21,NW,310,0.0,0.0,16,-99.99,,---,-99.99,VWS V14.01,2013-03-01 21:34:00,
2013-03-01 16:39:00,40.3,-2.3,29.21,NNW,329,0.0,0.0,16,-99.99,,---,-99.99,VWS V14.01,2013-03-01 21:39:00,
2013-03-01 16:44:00,40.3,-2.3,29.21,NNW,330,0.0,0.0,16,-99.99,,---,-99.99,VWS V14.01,2013-03-01 21:44:00,
2013-03-01 16:50:00,40.3,-2.3,29.21,NNW,328,0.0,0.0,16,-99.99,,---,-99.99,VWS V14.01,2013-03-01 21:50:00,
2013-03-01 16:55:00,40.3,-2.3,29.21,NNW,331,0.0,0.0,16,-99.99,,---,-99.99,VWS V14.01,2013-03-01 21:55:00,
2013-03-01 17:00:00,40.3,-2.3,29.21,NNE,22,0.0,0.0,16,-99.99,,---,-99.99,VWS V14.01,2013-03-01 22:00:00,
2013-03-01 17:05:00,40.5,-2.2,29.21,NNW,329,0.0,0.0,16,-99.99,,---,-99.99,VWS V14.01,2013-03-01 22:05:00,
2013-03-01 17:10:00,40.3,-2.3,29.21,NNW,333,0.0,0.0,16,-99.99,,---,-99.99,VWS V14.01,2013-03-01 22:10:00,
2013-03-01 17:15:00,40.3,-2.3,29.21,NNW,334,0.0,0.0,16,-99.99,,---,-99.99,VWS V14.01,2013-03-01 22:15:00,
2013-03-01 17:20:00,40.1,-2.5,29.21,NNW,331,0.0,0.0,16,-99.99,,---,-99.99,VWS V14.01,2013-03-01 22:20:00,
2013-03-01 17:26:00,39.9,-2.6,29.21,NW,319,0.0,0.0,16,-99.99,,---,-99.99,VWS V14.01,2013-03-01 22:26:00,
2013-03-01 17:31:00,39.7,-2.8,29.21,NW,323,0.0,0.0,16,-99.99,,---,-99.99,VWS V14.01,2013-03-01 22:31:00,
2013-03-01 17:36:00,39.6,-2.9,29.21,NNW,343,0.0,0.0,16,-99.99,,---,-99.99,VWS V14.01,2013-03-01 22:36:00,
2013-03-01 17:41:00,39.4,-3.1,29.21,NW,324,0.0,0.0,16,-99.99,,---,-99.99,VWS V14.01,2013-03-01 22:41:00,
2013-03-01 17:46:00,39.4,-3.1,29.23,NW,317,0.0,0.0,16,-99.99,,---,-99.99,VWS V14.01,2013-03-01 22:46:00,
2013-03-01 17:51:00,39.2,-3.2,29.23,NNW,333,0.0,0.0,16,-99.99,,---,-99.99,VWS V14.01,2013-03-01 22:51:00,
2013-03-01 17:56:00,39.0,-3.4,29.23,North,353,0.0,0.0,16,-99.99,,---,-99.99,VWS V14.01,2013-03-01 22:56:00,
2013-03-01 18:01:00,39.0,-3.4,29.23,NW,326,0.0,0.0,16,-99.99,,---,-99.99,VWS V14.01,2013-03-01 23:01:00,
2013-03-01 18:06:00,39.0,-3.4,29.23,NW,320,0.0,0.0,16,-99.99,,---,-99.99,VWS V14.01,2013-03-01 23:06:00,
2013-03-01 18:11:00,38.8,-3.5,29.23,NNW,337,0.0,0.0,16,-99.99,,---,-99.99,VWS V14.01,2013-03-01 23:11:00,
2013-03-01 18:16:00,38.8,-3.5,29.23,North,353,0.0,0.0,16,-99.99,,---,-99.99,VWS V14.01,2013-03-01 23:16:00,
2013-03-01 18:21:00,38.8,-3.5,29.23,WNW,301,0.0,0.0,16,-99.99,,---,-99.99,VWS V14.01,2013-03-01 23:21:00,
2013-03-01 18:26:00,38.7,-3.7,29.23,NNW,330,0.0,0.0,16,-99.99,,---,-99.99,VWS V14.01,2013-03-01 23:26:00,
2013-03-01 18:31:00,38.7,-3.7,29.23,WNW,299,0.0,0.0,16,-99.99,,---,-99.99,VWS V14.01,2013-03-01 23:31:00,
2013-03-01 18:36:00,38.7,-3.7,29.23,NNW,327,0.0,0.0,16,-99.99,,---,-99.99,VWS V14.01,2013-03-01 23:36:00,
2013-03-01 18:42:00,38.7,-3.7,29.23,NNW,330,0.0,0.0,16,-99.99,,---,-99.99,VWS V14.01,2013-03-01 23:42:00,
2013-03-01 18:47:00,38.7,-3.7,29.23,NNW,333,0.0,0.0,16,-99.99,,---,-99.99,VWS V14.01,2013-03-01 23:47:00,
2013-03-01 18:52:00,38.5,-3.8,29.23,NW,308,0.0,0.0,16,-99.99,,---,-99.99,VWS V14.01,2013-03-01 23:52:00,
2013-03-01 18:57:00,38.5,-3.8,29.23,NW,325,0.0,0.0,16,-99.99,,---,-99.99,VWS V14.01,2013-03-01 23:57:00,
2013-03-01 19:02:00,38.5,-3.8,29.23,NNW,329,0.0,0.0,16,-99.99,,---,-99.99,VWS V14.01,2013-03-02 00:02:00,
2013-03-01 19:07:00,38.5,-3.8,29.23,NNW,338,0.0,0.0,16,-99.99,,---,-99.99,VWS V14.01,2013-03-02 00:07:00,
2013-03-01 19:12:00,38.5,-3.8,29.23,NW,312,0.0,0.0,16,-99.99,,---,-99.99,VWS V14.01,2013-03-02 00:12:00,
2013-03-01 19:17:00,38.3,-4.0,29.23,NW,324,0.0,0.0,16,-99.99,,---,-99.99,VWS V14.01,2013-03-02 00:17:00,
2013-03-01 19:22:00,38.3,-4.0,29.23,NNW,339,0.0,0.0,16,-99.99,,---,-99.99,VWS V14.01,2013-03-02 00:22:00,
2013-03-01 19:28:00,38.3,-4.0,29.23,NNW,337,0.0,0.0,16,-99.99,,---,-99.99,VWS V14.01,2013-03-02 00:28:00,
2013-03-01 19:33:00,38.3,-4.0,29.23,NNW,345,0.0,0.0,16,-99.99,,---,-99.99,VWS V14.01,2013-03-02 00:33:00,
2013-03-01 19:38:00,38.1,-4.1,29.23,NW,325,0.0,0.0,16,-99.99,,---,-99.99,VWS V14.01,2013-03-02 00:38:00,
2013-03-01 19:43:00,38.1,-4.1,29.23,NNW,330,0.0,0.0,16,-99.99,,---,-99.99,VWS V14.01,2013-03-02 00:43:00,
2013-03-01 19:48:00,37.9,-4.2,29.23,NNW,329,0.0,0.0,16,-99.99,,---,-99.99,VWS V14.01,2013-03-02 00:48:00,
2013-03-01 19:53:00,37.8,-4.4,29.23,North,0,0.0,0.0,16,-99.99,,---,-99.99,VWS V14.01,2013-03-02 00:53:00,
2013-03-01 19:58:00,37.6,-4.5,29.23,NNW,340,0.0,0.0,16,-99.99,,---,-99.99,VWS V14.01,2013-03-02 00:58:00,
2013-03-01 20:04:00,37.6,-4.5,29.23,NNW,338,0.0,0.0,16,-99.99,,---,-99.99,VWS V14.01,2013-03-02 01:04:00,
2013-03-01 20:09:00,37.4,-4.7,29.23,NNW,339,0.0,0.0,16,-99.99,,---,-99.99,VWS V14.01,2013-03-02 01:09:00,
2013-03-01 20:14:00,37.0,-3.7,29.23,NW,312,0.0,0.0,17,-99.99,,---,-99.99,VWS V14.01,2013-03-02 01:14:00,
2013-03-01 20:19:00,36.7,-4.0,29.23,NNW,330,0.0,0.0,17,-99.99,,---,-99.99,VWS V14.01,2013-03-02 01:19:00,
2013-03-01 20:24:00,36.3,-4.3,29.23,NW,325,0.0,0.0,17,-99.99,,---,-99.99,VWS V14.01,2013-03-02 01:24:00,
2013-03-01 20:29:00,36.1,-4.5,29.23,North,353,0.0,0.0,17,-99.99,,---,-99.99,VWS V14.01,2013-03-02 01:29:00,
2013-03-01 20:34:00,36.0,-4.6,29.23,NNW,338,0.0,0.0,17,-99.99,,---,-99.99,VWS V14.01,2013-03-02 01:34:00,
2013-03-01 20:39:00,36.0,-4.6,29.23,NNW,342,0.0,0.0,17,-99.99,,---,-99.99,VWS V14.01,2013-03-02 01:39:00,
2013-03-01 20:45:00,36.0,-4.6,29.26,NNW,335,0.0,0.0,17,-99.99,,---,-99.99,VWS V14.01,2013-03-02 01:45:00,
2013-03-01 20:50:00,36.1,-4.5,29.26,NNW,338,0.0,0.0,17,-99.99,,---,-99.99,VWS V14.01,2013-03-02 01:50:00,
2013-03-01 20:55:00,36.1,-4.5,29.26,NNW,338,0.0,0.0,17,-99.99,,---,-99.99,VWS V14.01,2013-03-02 01:55:00,
2013-03-01 21:00:00,36.3,-4.3,29.26,NW,326,0.0,0.0,17,-99.99,,---,-99.99,VWS V14.01,2013-03-02 02:00:00,
2013-03-01 21:05:00,36.3,-4.3,29.26,North,353,0.0,0.0,17,-99.99,,---,-99.99,VWS V14.01,2013-03-02 02:05:00,
2013-03-01 21:10:00,36.3,-4.3,29.26,NW,318,0.0,0.0,17,-99.99,,---,-99.99,VWS V14.01,2013-03-02 02:10:00,
2013-03-01 21:16:00,36.5,-4.2,29.26,NNW,330,0.0,0.0,17,-99.99,,---,-99.99,VWS V14.01,2013-03-02 02:16:00,
2013-03-01 21:21:00,36.5,-4.2,29.26,NW,326,0.0,0.0,17,-99.99,,---,-99.99,VWS V14.01,2013-03-02 02:21:00,
2013-03-01 21:26:00,36.5,-4.2,29.26,NNW,346,0.0,0.0,17,-99.99,,---,-99.99,VWS V14.01,2013-03-02 02:26:00,
2013-03-01 21:31:00,36.3,-4.3,29.26,NNW,329,0.0,0.0,17,-99.99,,---,-99.99,VWS V14.01,2013-03-02 02:31:00,
2013-03-01 21:36:00,36.3,-4.3,29.26,NNW,341,0.0,0.0,17,-99.99,,---,-99.99,VWS V14.01,2013-03-02 02:36:00,
2013-03-01 21:41:00,36.3,-4.3,29.26,NW,318,0.0,0.0,17,-99.99,,---,-99.99,VWS V14.01,2013-03-02 02:41:00,
2013-03-01 21:46:00,36.3,-4.3,29.26,NNW,329,0.0,0.0,17,-99.99,,---,-99.99,VWS V14.01,2013-03-02 02:46:00,
2013-03-01 21:51:00,36.1,-4.5,29.26,NNW,334,0.0,0.0,17,-99.99,,---,-99.99,VWS V14.01,2013-03-02 02:51:00,
2013-03-01 21:57:00,36.1,-4.5,29.26,NW,326,0.0,0.0,17,-99.99,,---,-99.99,VWS V14.01,2013-03-02 02:57:00,
2013-03-01 22:02:00,36.1,-4.5,29.29,NNW,331,0.0,0.0,17,-99.99,,---,-99.99,VWS V14.01,2013-03-02 03:02:00,
2013-03-01 22:07:00,36.0,-4.6,29.29,NNW,328,0.0,0.0,17,-99.99,,---,-99.99,VWS V14.01,2013-03-02 03:07:00,
2013-03-01 22:12:00,36.0,-4.6,29.29,NW,305,0.0,0.0,17,-99.99,,---,-99.99,VWS V14.01,2013-03-02 03:12:00,
2013-03-01 22:17:00,36.0,-4.6,29.26,NNW,328,0.0,0.0,17,-99.99,,---,-99.99,VWS V14.01,2013-03-02 03:17:00,
2013-03-01 22:22:00,36.1,-4.5,29.26,NW,320,0.0,0.0,17,-99.99,,---,-99.99,VWS V14.01,2013-03-02 03:22:00,
2013-03-01 22:27:00,36.1,-4.5,29.26,NNW,332,0.0,0.0,17,-99.99,,---,-99.99,VWS V14.01,2013-03-02 03:27:00,
2013-03-01 22:33:00,36.1,-4.5,29.26,NW,316,0.0,0.0,17,-99.99,,---,-99.99,VWS V14.01,2013-03-02 03:33:00,
2013-03-01 22:38:00,36.1,-4.5,29.26,NW,318,0.0,0.0,17,-99.99,,---,-99.99,VWS V14.01,2013-03-02 03:38:00,
2013-03-01 22:43:00,36.1,-4.5,29.26,NNW,332,0.0,0.0,17,-99.99,,---,-99.99,VWS V14.01,2013-03-02 03:43:00,
2013-03-01 22:48:00,36.1,-4.5,29.26,NW,322,0.0,0.0,17,-99.99,,---,-99.99,VWS V14.01,2013-03-02 03:48:00,
2013-03-01 22:53:00,36.0,-4.6,29.26,NNW,338,0.0,0.0,17,-99.99,,---,-99.99,VWS V14.01,2013-03-02 03:53:00,
2013-03-01 22:58:00,35.8,-4.8,29.26,NW,319,0.0,0.0,17,-99.99,,---,-99.99,VWS V14.01,2013-03-02 03:58:00,
2013-03-01 23:03:00,35.8,-4.8,29.26,NNW,330,0.0,0.0,17,-99.99,,---,-99.99,VWS V14.01,2013-03-02 04:03:00,
2013-03-01 23:08:00,35.8,-4.8,29.26,NW,323,0.0,0.0,17,-99.99,,---,-99.99,VWS V14.01,2013-03-02 04:08:00,
2013-03-01 23:13:00,35.6,-4.9,29.23,North,2,0.0,0.0,17,-99.99,,---,-99.99,VWS V14.01,2013-03-02 04:13:00,
2013-03-01 23:18:00,35.4,-5.1,29.23,NNW,345,0.0,0.0,17,-99.99,,---,-99.99,VWS V14.01,2013-03-02 04:18:00,
2013-03-01 23:23:00,35.2,-5.2,29.23,NNW,332,0.0,0.0,17,-99.99,,---,-99.99,VWS V14.01,2013-03-02 04:23:00,
2013-03-01 23:28:00,34.9,-5.5,29.26,NNW,343,0.0,0.0,17,-99.99,,---,-99.99,VWS V14.01,2013-03-02 04:28:00,
2013-03-01 23:36:00,34.7,-5.6,29.26,NNW,330,0.0,0.0,17,-99.99,,---,-99.99,VWS V14.01,2013-03-02 04:36:00,
2013-03-01 23:41:00,34.5,-5.8,29.26,NW,324,0.0,0.0,17,-99.99,,---,-99.99,VWS V14.01,2013-03-02 04:41:00,
2013-03-01 23:46:00,34.3,-5.9,29.26,NNW,341,0.0,0.0,17,-99.99,,---,-99.99,VWS V14.01,2013-03-02 04:46:00,
2013-03-01 23:51:00,34.2,-6.1,29.26,NW,321,0.0,0.0,17,-99.99,,---,-99.99,VWS V14.01,2013-03-02 04:51:00,
2013-03-01 23:56:00,34.0,-6.2,29.26,NNW,331,0.0,0.0,17,-99.99,,---,-99.99,VWS V14.01,2013-03-02 04:56:00,